createdAt,value
2019-06-27T04:24:33.481Z,1010.39
2019-06-27T04:25:33.353Z,1010.41
2019-06-27T04:26:33.343Z,1010.40
2019-06-27T04:27:33.415Z,1010.44
2019-06-27T04:28:33.362Z,1010.44
2019-06-27T04:29:34.580Z,1010.49
2019-06-27T04:30:33.323Z,1010.47
2019-06-27T04:31:33.343Z,1010.50
2019-06-27T04:32:33.281Z,1010.53
2019-06-27T04:33:33.363Z,1010.53
2019-06-27T04:34:33.311Z,1010.47
2019-06-27T04:35:33.380Z,1010.47
2019-06-27T04:38:38.807Z,1010.45
2019-06-27T04:39:37.913Z,1010.50
2019-06-27T04:40:37.925Z,1010.52
2019-06-27T04:41:37.885Z,1010.54
2019-06-27T04:42:37.846Z,1010.54
2019-06-27T04:43:37.920Z,1010.57
2019-06-27T04:44:37.878Z,1010.59
2019-06-27T04:45:37.921Z,1010.60
2019-06-27T04:46:37.897Z,1010.64
2019-06-27T04:47:37.952Z,1010.62
2019-06-27T04:48:37.948Z,1010.69
2019-06-27T04:49:46.670Z,1010.72
2019-06-27T04:51:42.719Z,1010.70
2019-06-27T04:52:51.404Z,1010.73
2019-06-27T04:54:47.122Z,1010.77
2019-06-27T04:55:56.853Z,1010.77
2019-06-27T04:57:51.646Z,1010.86
2019-06-27T04:58:51.682Z,1010.85
2019-06-27T04:59:53.943Z,1010.88
2019-06-27T05:00:51.732Z,1010.86
2019-06-27T05:01:51.608Z,1010.87
2019-06-27T05:02:51.536Z,1010.90
2019-06-27T05:03:51.551Z,1010.92
2019-06-27T05:04:51.573Z,1010.90
2019-06-27T05:05:51.583Z,1010.93
2019-06-27T05:06:51.598Z,1010.94
2019-06-27T05:07:51.649Z,1010.91
2019-06-27T05:08:51.627Z,1010.93
2019-06-27T05:09:51.649Z,1010.98
2019-06-27T05:10:51.675Z,1010.93
2019-06-27T05:11:51.814Z,1010.90
2019-06-27T05:12:51.646Z,1010.83
2019-06-27T05:13:51.713Z,1010.79
2019-06-27T05:14:51.728Z,1010.84
2019-06-27T05:15:51.714Z,1010.83
2019-06-27T05:16:51.797Z,1010.70
2019-06-27T05:17:51.755Z,1010.79
2019-06-27T05:18:51.735Z,1010.87
2019-06-27T05:19:51.780Z,1010.89
2019-06-27T05:20:51.814Z,1010.90
2019-06-27T05:21:51.844Z,1010.91
2019-06-27T05:22:51.834Z,1010.92
2019-06-27T05:23:51.880Z,1010.96
2019-06-27T05:24:51.879Z,1010.86
2019-06-27T05:25:51.931Z,1010.96
2019-06-27T05:26:51.887Z,1010.98
2019-06-27T05:27:51.930Z,1010.94
2019-06-27T05:28:51.953Z,1011.03
2019-06-27T05:30:07.944Z,1011.06
2019-06-27T05:30:51.981Z,1011.03
2019-06-27T05:31:51.975Z,1011.02
2019-06-27T05:32:52.018Z,1010.99
2019-06-27T05:33:51.990Z,1010.87
2019-06-27T05:34:51.983Z,1010.95
2019-06-27T05:36:02.447Z,1010.84
2019-06-27T05:38:06.765Z,1010.85
2019-06-27T05:39:06.531Z,1010.80
2019-06-27T05:41:01.606Z,1010.84
2019-06-27T05:42:01.127Z,1010.78
2019-06-27T05:43:01.226Z,1010.79
2019-06-27T05:44:01.131Z,1010.78
2019-06-27T05:45:01.231Z,1010.79
2019-06-27T05:46:01.176Z,1010.80
2019-06-27T05:47:01.185Z,1010.77
2019-06-27T05:48:01.223Z,1010.78
2019-06-27T05:49:01.206Z,1010.80
2019-06-27T05:51:41.052Z,1010.79
2019-06-27T05:52:40.863Z,1010.85
2019-06-27T05:54:34.432Z,1010.99
2019-06-27T05:55:34.381Z,1010.90
2019-06-27T05:56:34.440Z,1010.93
2019-06-27T05:57:34.486Z,1010.88
2019-06-27T05:58:34.505Z,1010.96
2019-06-27T05:59:34.460Z,1011.00
2019-06-27T06:00:34.516Z,1011.06
2019-06-27T06:01:34.503Z,1011.18
2019-06-27T06:02:34.528Z,1011.27
2019-06-27T06:03:34.546Z,1011.17
2019-06-27T06:04:34.541Z,1011.24
2019-06-27T06:05:34.674Z,1011.47
2019-06-27T06:06:34.733Z,1011.24
2019-06-27T06:07:34.646Z,1011.21
2019-06-27T06:08:34.652Z,1011.32
2019-06-27T06:09:34.633Z,1011.30
2019-06-27T06:10:34.630Z,1011.32
2019-06-27T06:11:34.641Z,1011.31
2019-06-27T06:12:34.704Z,1011.30
2019-06-27T06:13:34.726Z,1011.32
2019-06-27T06:14:34.760Z,1012.44
2019-06-27T06:15:34.723Z,1011.40
2019-06-27T06:16:34.758Z,1012.82
2019-06-27T06:17:34.763Z,1011.42
2019-06-27T06:18:34.746Z,1011.46
2019-06-27T06:19:34.760Z,1011.44
2019-06-27T06:20:34.791Z,1013.77
2019-06-27T06:21:34.793Z,1011.53
2019-06-27T06:22:34.813Z,1013.00
2019-06-27T06:23:34.839Z,1014.30
2019-06-27T06:24:34.875Z,1013.53
2019-06-27T06:25:34.890Z,1011.85
2019-06-27T06:26:34.896Z,1011.48
2019-06-27T06:27:34.873Z,1011.50
2019-06-27T06:28:34.944Z,1011.50
2019-06-27T06:29:34.933Z,1011.49
2019-06-27T06:30:44.199Z,1011.51
2019-06-27T06:31:34.944Z,1011.51
2019-06-27T06:32:34.948Z,1011.56
2019-06-27T06:33:35.000Z,1011.55
2019-06-27T06:34:35.037Z,1011.58
2019-06-27T06:35:35.025Z,1011.54
2019-06-27T06:36:35.127Z,1011.60
2019-06-27T06:37:35.097Z,1011.57
2019-06-27T06:38:35.054Z,1011.63
2019-06-27T06:39:35.042Z,1011.59
2019-06-27T06:40:43.725Z,1011.57
2019-06-27T06:42:40.134Z,1011.57
2019-06-27T06:43:39.771Z,1011.57
2019-06-27T06:44:39.589Z,1011.63
2019-06-27T06:45:39.610Z,1011.57
2019-06-27T06:46:39.602Z,1011.59
2019-06-27T06:47:39.689Z,1011.61
2019-06-27T06:48:39.681Z,1011.57
2019-06-27T06:49:39.656Z,1011.56
2019-06-27T06:50:39.628Z,1011.60
2019-06-27T06:51:39.703Z,1011.59
2019-06-27T06:52:39.709Z,1011.59
2019-06-27T06:53:39.696Z,1011.63
2019-06-27T06:54:39.672Z,1011.62
2019-06-27T06:55:42.666Z,1011.59
2019-06-27T06:56:39.820Z,1011.63
2019-06-27T06:57:39.740Z,1011.63
2019-06-27T06:58:39.748Z,1011.59
2019-06-27T06:59:39.790Z,1011.63
2019-06-27T07:00:39.756Z,1011.64
2019-06-27T07:01:39.765Z,1011.59
2019-06-27T07:02:39.772Z,1011.60
2019-06-27T07:03:39.840Z,1011.62
2019-06-27T07:04:39.774Z,1011.61
2019-06-27T07:05:48.496Z,1011.60
2019-06-27T07:07:44.356Z,1011.58
2019-06-27T07:08:44.367Z,1011.60
2019-06-27T07:09:44.355Z,1011.58
2019-06-27T07:10:44.334Z,1011.62
2019-06-27T07:11:44.332Z,1011.61
2019-06-27T07:12:44.360Z,1011.66
2019-06-27T07:13:44.363Z,1011.67
2019-06-27T07:14:44.370Z,1011.66
2019-06-27T07:15:44.363Z,1011.60
2019-06-27T07:16:44.402Z,1011.63
2019-06-27T07:17:53.073Z,1011.67
2019-06-27T07:19:50.000Z,1011.68
2019-06-27T07:20:49.914Z,1011.68
2019-06-27T07:21:49.925Z,1011.70
2019-06-27T07:22:49.938Z,1011.70
2019-06-27T07:23:50.002Z,1011.68
2019-06-27T07:24:50.284Z,1011.69
2019-06-27T07:25:49.952Z,1011.64
2019-06-27T07:26:49.979Z,1011.62
2019-06-27T07:27:49.982Z,1011.63
2019-06-27T07:28:50.003Z,1011.65
2019-06-27T07:29:50.022Z,1011.66
2019-06-27T07:30:50.017Z,1011.62
2019-06-27T07:31:50.040Z,1011.65
2019-06-27T07:32:50.042Z,1011.63
2019-06-27T07:33:50.049Z,1011.62
2019-06-27T07:34:50.042Z,1011.63
2019-06-27T07:35:50.054Z,1011.59
2019-06-27T07:36:50.062Z,1011.58
2019-06-27T07:37:50.076Z,1011.64
2019-06-27T07:38:50.123Z,1011.63
2019-06-27T07:39:50.069Z,1011.59
2019-06-27T07:40:50.098Z,1011.54
2019-06-27T07:41:50.081Z,1011.58
2019-06-27T07:42:50.116Z,1011.60
2019-06-27T07:43:50.156Z,1011.63
2019-06-27T07:44:50.107Z,1011.59
2019-06-27T07:45:50.142Z,1011.57
2019-06-27T07:46:50.143Z,1011.59
2019-06-27T07:47:50.138Z,1011.59
2019-06-27T07:48:50.243Z,1011.59
2019-06-27T07:49:50.154Z,1011.56
2019-06-27T07:50:50.318Z,1011.57
2019-06-27T07:51:50.177Z,1011.57
2019-06-27T07:52:50.224Z,1011.56
2019-06-27T07:53:50.260Z,1011.60
2019-06-27T07:54:50.197Z,1011.60
2019-06-27T07:55:50.221Z,1011.55
2019-06-27T07:56:50.275Z,1011.58
2019-06-27T07:57:50.229Z,1011.55
2019-06-27T07:58:50.278Z,1011.56
2019-06-27T07:59:50.235Z,1011.56
2019-06-27T08:00:50.260Z,1011.57
2019-06-27T08:01:50.251Z,1011.58
2019-06-27T08:02:50.266Z,1011.53
2019-06-27T08:03:50.273Z,1011.51
2019-06-27T08:04:50.283Z,1011.51
2019-06-27T08:05:50.288Z,1011.52
2019-06-27T08:07:00.020Z,1011.50
2019-06-27T08:08:55.449Z,1011.54
2019-06-27T08:09:54.859Z,1011.53
2019-06-27T08:10:54.961Z,1011.54
2019-06-27T08:11:54.979Z,1011.53
2019-06-27T08:12:54.882Z,1011.55
2019-06-27T08:13:54.862Z,1011.52
2019-06-27T08:14:54.871Z,1011.48
2019-06-27T08:15:54.893Z,1011.48
2019-06-27T08:16:54.922Z,1011.47
2019-06-27T08:17:54.903Z,1011.53
2019-06-27T08:18:54.923Z,1011.53
2019-06-27T08:19:55.008Z,1011.48
2019-06-27T08:20:54.934Z,1011.45
2019-06-27T08:21:54.965Z,1011.46
2019-06-27T08:22:54.935Z,1011.49
2019-06-27T08:23:54.936Z,1011.47
2019-06-27T08:24:54.987Z,1011.49
2019-06-27T08:25:54.987Z,1011.52
2019-06-27T08:26:55.002Z,1011.48
2019-06-27T08:27:54.980Z,1011.44
2019-06-27T08:28:54.986Z,1011.44
2019-06-27T08:29:55.001Z,1011.48
2019-06-27T08:30:55.018Z,1011.42
2019-06-27T08:31:54.999Z,1011.44
2019-06-27T08:32:55.004Z,1011.42
2019-06-27T08:33:55.048Z,1011.41
2019-06-27T08:34:55.038Z,1011.48
2019-06-27T08:35:55.033Z,1011.42
2019-06-27T08:36:55.037Z,1011.35
2019-06-27T08:37:55.081Z,1011.34
2019-06-27T08:38:55.075Z,1011.38
2019-06-27T08:39:55.072Z,1011.35
2019-06-27T08:40:55.095Z,1011.40
2019-06-27T08:41:55.150Z,1011.38
2019-06-27T08:42:55.115Z,1011.42
2019-06-27T08:43:55.099Z,1011.36
2019-06-27T08:44:55.134Z,1011.38
2019-06-27T08:45:55.127Z,1011.35
2019-06-27T08:46:55.119Z,1011.35
2019-06-27T08:47:55.156Z,1011.40
2019-06-27T08:48:55.143Z,1011.34
2019-06-27T08:49:55.183Z,1011.33
2019-06-27T08:50:55.175Z,1011.36
2019-06-27T08:51:55.173Z,1011.32
2019-06-27T08:52:55.212Z,1011.34
2019-06-27T08:53:55.192Z,1011.34
2019-06-27T08:54:55.211Z,1011.35
2019-06-27T08:55:55.301Z,1011.37
2019-06-27T08:56:55.254Z,1011.35
2019-06-27T08:57:55.215Z,1011.33
2019-06-27T08:58:55.440Z,1011.34
2019-06-27T08:59:55.233Z,1011.33
2019-06-27T09:00:55.238Z,1011.31
2019-06-27T09:02:08.122Z,1011.24
2019-06-27T09:02:55.261Z,1011.32
2019-06-27T09:03:55.258Z,1011.30
2019-06-27T09:06:47.549Z,1011.25
2019-06-27T09:07:47.193Z,1011.29
2019-06-27T09:09:52.123Z,1011.29
2019-06-27T09:10:51.735Z,1011.27
2019-06-27T09:12:57.585Z,1011.32
2019-06-27T09:13:57.270Z,1011.28
2019-06-27T09:15:53.128Z,1011.27
2019-06-27T09:16:53.097Z,1011.25
2019-06-27T09:17:53.073Z,1011.27
2019-06-27T09:18:53.096Z,1011.30
2019-06-27T09:19:53.104Z,1011.25
2019-06-27T09:20:53.085Z,1011.20
2019-06-27T09:21:53.110Z,1011.23
2019-06-27T09:22:53.113Z,1011.22
2019-06-27T09:23:53.125Z,1011.28
2019-06-27T09:24:53.122Z,1011.26
2019-06-27T09:25:53.125Z,1011.25
2019-06-27T09:26:53.145Z,1011.26
2019-06-27T09:27:53.176Z,1011.29
2019-06-27T09:28:53.172Z,1011.30
2019-06-27T09:29:53.168Z,1011.31
2019-06-27T09:30:53.180Z,1011.27
2019-06-27T09:31:53.181Z,1011.30
2019-06-27T09:32:53.212Z,1011.26
2019-06-27T09:33:53.225Z,1011.29
2019-06-27T09:34:53.222Z,1011.31
2019-06-27T09:35:53.220Z,1011.28
2019-06-27T09:36:53.223Z,1011.28
2019-06-27T09:37:53.236Z,1011.25
2019-06-27T09:38:53.262Z,1011.27
2019-06-27T09:39:53.307Z,1011.26
2019-06-27T09:40:53.270Z,1011.30
2019-06-27T09:41:53.281Z,1011.31
2019-06-27T09:42:53.288Z,1011.29
2019-06-27T09:43:53.333Z,1011.31
2019-06-27T09:44:53.291Z,1011.28
2019-06-27T09:45:53.330Z,1011.26
2019-06-27T09:46:53.321Z,1011.31
2019-06-27T09:47:53.310Z,1011.27
2019-06-27T09:48:53.313Z,1011.29
2019-06-27T09:49:53.323Z,1011.23
2019-06-27T09:50:53.365Z,1011.33
2019-06-27T09:51:53.342Z,1011.31
2019-06-27T09:52:53.359Z,1011.34
2019-06-27T09:53:53.407Z,1011.38
2019-06-27T09:54:53.426Z,1011.33
2019-06-27T09:55:53.413Z,1011.33
2019-06-27T09:56:53.391Z,1011.34
2019-06-27T09:57:53.418Z,1011.30
2019-06-27T09:58:53.434Z,1011.27
2019-06-27T09:59:53.426Z,1011.31
2019-06-27T10:00:53.454Z,1011.26
2019-06-27T10:01:53.428Z,1011.26
2019-06-27T10:02:53.483Z,1011.30
2019-06-27T10:03:53.493Z,1011.35
2019-06-27T10:04:53.459Z,1011.30
2019-06-27T10:05:53.493Z,1011.28
2019-06-27T10:06:53.520Z,1011.30
2019-06-27T10:07:53.495Z,1011.27
2019-06-27T10:08:53.531Z,1011.30
2019-06-27T10:09:53.559Z,1011.27
2019-06-27T10:10:53.535Z,1011.28
2019-06-27T10:11:53.604Z,1011.22
2019-06-27T10:12:53.567Z,1011.27
2019-06-27T10:13:53.582Z,1011.26
2019-06-27T10:14:53.551Z,1011.26
2019-06-27T10:15:53.616Z,1011.23
2019-06-27T10:16:53.589Z,1011.30
2019-06-27T10:17:53.577Z,1011.28
2019-06-27T10:18:53.594Z,1011.27
2019-06-27T10:19:53.637Z,1011.25
2019-06-27T10:20:53.614Z,1011.39
2019-06-27T10:21:53.602Z,1011.28
2019-06-27T10:22:53.617Z,1011.34
2019-06-27T10:23:53.652Z,1011.28
2019-06-27T10:24:53.640Z,1011.26
2019-06-27T10:25:53.639Z,1011.33
2019-06-27T10:26:53.663Z,1011.27
2019-06-27T10:27:53.658Z,1011.23
2019-06-27T10:28:53.684Z,1011.27
2019-06-27T10:29:53.695Z,1011.20
2019-06-27T10:30:53.693Z,1011.30
2019-06-27T10:31:53.686Z,1011.31
2019-06-27T10:32:59.323Z,1011.27
2019-06-27T10:33:53.746Z,1011.30
2019-06-27T10:34:53.734Z,1011.26
2019-06-27T10:35:53.735Z,1011.26
2019-06-27T10:36:53.730Z,1011.25
2019-06-27T10:37:53.786Z,1011.22
2019-06-27T10:38:53.772Z,1011.26
2019-06-27T10:39:53.767Z,1011.33
2019-06-27T10:40:53.827Z,1011.33
2019-06-27T10:41:53.809Z,1011.33
2019-06-27T10:42:53.841Z,1011.26
2019-06-27T10:43:53.788Z,1011.29
2019-06-27T10:44:53.835Z,1011.25
2019-06-27T10:45:53.844Z,1011.29
2019-06-27T10:46:53.833Z,1011.29
2019-06-27T10:47:53.837Z,1011.25
2019-06-27T10:48:53.852Z,1011.29
2019-06-27T10:49:53.866Z,1011.24
2019-06-27T10:50:54.840Z,1011.26
2019-06-27T10:51:53.931Z,1011.29
2019-06-27T10:52:53.914Z,1011.26
2019-06-27T10:53:53.882Z,1011.25
2019-06-27T10:54:53.927Z,1011.24
2019-06-27T10:55:53.901Z,1011.21
2019-06-27T10:56:53.920Z,1011.19
2019-06-27T10:57:53.920Z,1011.19
2019-06-27T10:58:53.922Z,1011.25
2019-06-27T10:59:53.932Z,1011.20
2019-06-27T11:00:54.007Z,1011.24
2019-06-27T11:01:53.997Z,1011.22
2019-06-27T11:02:53.961Z,1011.19
2019-06-27T11:03:53.970Z,1011.14
2019-06-27T11:04:54.013Z,1011.13
2019-06-27T11:06:02.647Z,1011.06
2019-06-27T11:08:09.832Z,1011.14
2019-06-27T11:09:09.803Z,1011.13
2019-06-27T11:10:09.815Z,1011.14
2019-06-27T11:11:09.796Z,1011.13
2019-06-27T11:12:09.818Z,1011.13
2019-06-27T11:13:09.839Z,1011.09
2019-06-27T11:14:09.837Z,1011.08
2019-06-27T11:15:09.854Z,1011.13
2019-06-27T11:16:18.539Z,1011.07
2019-06-27T11:18:14.807Z,1011.05
2019-06-27T11:19:14.803Z,1011.11
2019-06-27T11:20:23.428Z,1011.04
2019-06-27T11:22:19.369Z,1011.01
2019-06-27T11:23:19.424Z,1011.02
2019-06-27T11:24:19.428Z,1011.00
2019-06-27T11:25:19.344Z,1011.01
2019-06-27T11:26:19.349Z,1010.98
2019-06-27T11:27:19.432Z,1010.90
2019-06-27T11:28:19.375Z,1010.95
2019-06-27T11:29:19.394Z,1010.97
2019-06-27T11:30:19.426Z,1010.93
2019-06-27T11:31:19.399Z,1010.99
2019-06-27T11:32:19.402Z,1010.95
2019-06-27T11:33:31.961Z,1010.90
2019-06-27T11:34:19.469Z,1010.91
2019-06-27T11:35:19.425Z,1010.88
2019-06-27T11:36:19.444Z,1010.96
2019-06-27T11:37:19.475Z,1010.92
2019-06-27T11:38:28.741Z,1010.92
2019-06-27T11:40:22.937Z,1010.84
2019-06-27T11:41:12.899Z,1010.90
2019-06-27T11:42:12.910Z,1010.89
2019-06-27T11:43:13.006Z,1010.85
2019-06-27T11:44:12.904Z,1010.86
2019-06-27T11:45:13.012Z,1010.88
2019-06-27T11:46:12.953Z,1010.84
2019-06-27T11:47:12.955Z,1010.91
2019-06-27T11:48:12.947Z,1010.87
2019-06-27T11:49:12.951Z,1010.89
2019-06-27T11:50:13.886Z,1010.83
2019-06-27T11:51:13.019Z,1010.87
2019-06-27T11:52:13.032Z,1010.84
2019-06-27T11:53:12.987Z,1010.83
2019-06-27T11:54:13.015Z,1010.89
2019-06-27T11:55:12.998Z,1010.85
2019-06-27T11:56:13.009Z,1010.83
2019-06-27T11:57:13.049Z,1010.85
2019-06-27T11:58:13.057Z,1010.87
2019-06-27T11:59:13.056Z,1010.84
2019-06-27T12:00:13.059Z,1010.84
2019-06-27T12:01:13.095Z,1010.83
2019-06-27T12:02:13.072Z,1010.84
2019-06-27T12:03:13.119Z,1010.85
2019-06-27T12:04:13.089Z,1010.81
2019-06-27T12:05:13.088Z,1010.83
2019-06-27T12:06:13.125Z,1010.84
2019-06-27T12:07:13.111Z,1010.81
2019-06-27T12:08:13.115Z,1010.84
2019-06-27T12:09:13.208Z,1010.82
2019-06-27T12:10:13.152Z,1010.79
2019-06-27T12:11:13.152Z,1010.78
2019-06-27T12:12:13.158Z,1010.78
2019-06-27T12:13:13.191Z,1010.84
2019-06-27T12:14:13.162Z,1010.77
2019-06-27T12:15:13.186Z,1010.77
2019-06-27T12:16:13.234Z,1010.74
2019-06-27T12:17:13.214Z,1010.78
2019-06-27T12:18:13.225Z,1010.83
2019-06-27T12:19:13.264Z,1010.81
2019-06-27T12:20:13.257Z,1010.73
2019-06-27T12:21:13.252Z,1010.73
2019-06-27T12:22:13.236Z,1010.67
2019-06-27T12:23:13.246Z,1010.69
2019-06-27T12:24:13.316Z,1010.69
2019-06-27T12:25:13.308Z,1010.69
2019-06-27T12:26:13.285Z,1010.67
2019-06-27T12:27:13.294Z,1010.68
2019-06-27T12:28:13.344Z,1010.64
2019-06-27T12:29:13.322Z,1010.67
2019-06-27T12:30:13.362Z,1010.78
2019-06-27T12:31:20.287Z,1010.66
2019-06-27T12:32:13.419Z,1010.60
2019-06-27T12:33:13.361Z,1010.63
2019-06-27T12:34:13.346Z,1010.59
2019-06-27T12:35:13.359Z,1010.59
2019-06-27T12:36:13.381Z,1010.59
2019-06-27T12:37:13.387Z,1010.61
2019-06-27T12:38:13.417Z,1010.59
2019-06-27T12:39:13.405Z,1010.59
2019-06-27T12:40:13.481Z,1010.56
2019-06-27T12:41:13.430Z,1010.58
2019-06-27T12:42:13.423Z,1010.54
2019-06-27T12:43:14.516Z,1010.51
2019-06-27T12:44:13.436Z,1010.49
2019-06-27T12:45:13.485Z,1010.58
2019-06-27T12:46:13.476Z,1010.53
2019-06-27T12:47:13.455Z,1010.54
2019-06-27T12:48:13.502Z,1010.57
2019-06-27T12:49:13.500Z,1010.55
2019-06-27T12:50:13.558Z,1010.56
2019-06-27T12:51:13.530Z,1010.57
2019-06-27T12:52:13.510Z,1010.56
2019-06-27T12:53:13.517Z,1010.57
2019-06-27T12:54:13.552Z,1010.61
2019-06-27T12:55:13.589Z,1010.57
2019-06-27T12:56:13.561Z,1010.55
2019-06-27T12:57:13.605Z,1010.54
2019-06-27T12:58:13.571Z,1010.52
2019-06-27T12:59:13.593Z,1010.50
2019-06-27T13:00:13.663Z,1010.52
2019-06-27T13:01:13.631Z,1010.46
2019-06-27T13:02:13.662Z,1010.49
2019-06-27T13:03:13.600Z,1010.47
2019-06-27T13:04:23.528Z,1010.44
2019-06-27T13:05:13.632Z,1010.46
2019-06-27T13:06:13.626Z,1010.48
2019-06-27T13:07:13.646Z,1010.45
2019-06-27T13:08:13.676Z,1010.39
2019-06-27T13:09:13.676Z,1010.44
2019-06-27T13:10:13.708Z,1010.39
2019-06-27T13:11:22.391Z,1010.38
2019-06-27T13:13:18.271Z,1010.40
2019-06-27T13:14:18.223Z,1010.41
2019-06-27T13:15:18.306Z,1010.42
2019-06-27T13:16:18.281Z,1010.40
2019-06-27T13:17:18.246Z,1010.39
2019-06-27T13:18:18.231Z,1010.41
2019-06-27T13:19:18.246Z,1010.36
2019-06-27T13:20:18.243Z,1010.36
2019-06-27T13:21:18.267Z,1010.37
2019-06-27T13:22:18.312Z,1010.38
2019-06-27T13:23:18.294Z,1010.36
2019-06-27T13:24:18.283Z,1010.42
2019-06-27T13:25:18.382Z,1010.35
2019-06-27T13:26:27.084Z,1010.38
2019-06-27T13:28:22.899Z,1010.43
2019-06-27T13:29:31.574Z,1010.38
2019-06-27T13:31:36.348Z,1010.38
2019-06-27T13:32:27.414Z,1010.42
2019-06-27T13:33:29.340Z,1010.34
2019-06-27T13:34:40.072Z,1010.34
2019-06-27T13:35:27.389Z,1010.31
2019-06-27T13:36:27.429Z,1010.29
2019-06-27T13:37:29.992Z,1010.28
2019-06-27T13:38:27.400Z,1010.28
2019-06-27T13:39:27.491Z,1010.26
2019-06-27T13:40:27.428Z,1010.27
2019-06-27T13:41:27.442Z,1010.20
2019-06-27T13:42:27.501Z,1010.19
2019-06-27T13:43:27.440Z,1010.21
2019-06-27T13:44:27.486Z,1010.20
2019-06-27T13:45:27.550Z,1010.17
2019-06-27T13:46:27.521Z,1010.19
2019-06-27T13:47:27.540Z,1010.15
2019-06-27T13:48:27.519Z,1010.15
2019-06-27T13:49:27.508Z,1010.18
2019-06-27T13:50:27.520Z,1010.15
2019-06-27T13:51:27.558Z,1010.16
2019-06-27T13:52:27.561Z,1010.17
2019-06-27T13:53:27.553Z,1010.13
2019-06-27T13:54:27.536Z,1010.06
2019-06-27T13:55:27.548Z,1010.07
2019-06-27T13:56:27.745Z,1010.10
2019-06-27T13:57:27.591Z,1010.05
2019-06-27T13:58:27.602Z,1010.09
2019-06-27T13:59:37.312Z,1010.03
2019-06-27T14:01:32.200Z,1010.04
2019-06-27T14:02:40.800Z,1010.01
2019-06-27T14:06:04.684Z,1010.07
2019-06-27T14:07:03.703Z,1010.00
2019-06-27T14:08:59.577Z,1009.97
2019-06-27T14:09:59.922Z,1009.97
2019-06-27T14:11:09.002Z,1010.02
2019-06-27T14:13:04.067Z,1010.00
2019-06-27T14:14:04.080Z,1009.97
2019-06-27T14:15:12.737Z,1009.96
2019-06-27T14:17:09.308Z,1009.95
2019-06-27T14:18:08.578Z,1009.93
2019-06-27T14:19:08.659Z,1009.92
2019-06-27T14:20:08.571Z,1009.89
2019-06-27T14:21:08.610Z,1009.96
2019-06-27T14:22:08.655Z,1009.95
2019-06-27T14:23:08.638Z,1009.91
2019-06-27T14:24:08.695Z,1009.88
2019-06-27T14:25:08.670Z,1009.88
2019-06-27T14:26:08.668Z,1009.90
2019-06-27T14:27:08.665Z,1009.89
2019-06-27T14:28:08.651Z,1009.82
2019-06-27T14:29:08.661Z,1009.83
2019-06-27T14:30:08.721Z,1009.80
2019-06-27T14:31:08.675Z,1009.81
2019-06-27T14:32:08.785Z,1009.81
2019-06-27T14:33:08.741Z,1009.77
2019-06-27T14:34:08.741Z,1009.75
2019-06-27T14:35:15.416Z,1009.82
2019-06-27T14:36:08.759Z,1009.79
2019-06-27T14:37:08.743Z,1009.79
2019-06-27T14:38:08.795Z,1009.76
2019-06-27T14:39:08.741Z,1009.84
2019-06-27T14:40:08.843Z,1009.79
2019-06-27T14:41:08.769Z,1009.75
2019-06-27T14:42:08.804Z,1009.83
2019-06-27T14:43:08.814Z,1009.81
2019-06-27T14:44:08.803Z,1009.79
2019-06-27T14:45:08.850Z,1009.73
2019-06-27T14:46:08.899Z,1009.74
2019-06-27T14:47:08.846Z,1009.77
2019-06-27T14:48:08.879Z,1009.76
2019-06-27T14:49:08.865Z,1009.74
2019-06-27T14:50:08.862Z,1009.79
2019-06-27T14:51:08.885Z,1009.76
2019-06-27T14:52:08.921Z,1009.68
2019-06-27T14:53:08.900Z,1009.82
2019-06-27T14:54:08.910Z,1009.74
2019-06-27T14:55:08.896Z,1009.76
2019-06-27T14:56:08.937Z,1009.74
2019-06-27T14:57:08.918Z,1009.74
2019-06-27T14:58:08.947Z,1009.74
2019-06-27T14:59:08.985Z,1009.72
2019-06-27T15:00:08.937Z,1009.70
2019-06-27T15:01:09.976Z,1009.73
2019-06-27T15:02:08.979Z,1009.73
2019-06-27T15:03:09.013Z,1009.70
2019-06-27T15:04:08.983Z,1009.73
2019-06-27T15:05:09.003Z,1009.67
2019-06-27T15:06:12.247Z,1009.70
2019-06-27T15:07:09.011Z,1009.69
2019-06-27T15:08:09.018Z,1009.72
2019-06-27T15:09:09.037Z,1009.67
2019-06-27T15:10:09.035Z,1009.71
2019-06-27T15:11:09.062Z,1009.69
2019-06-27T15:12:09.050Z,1009.73
2019-06-27T15:13:09.069Z,1009.71
2019-06-27T15:14:09.126Z,1009.77
2019-06-27T15:15:17.842Z,1009.76
2019-06-27T15:17:23.611Z,1009.66
2019-06-27T15:18:16.433Z,1009.66
2019-06-27T15:19:13.620Z,1009.66
2019-06-27T15:20:13.609Z,1009.72
2019-06-27T15:21:13.669Z,1009.73
2019-06-27T15:22:13.627Z,1009.66
2019-06-27T15:23:13.654Z,1009.67
2019-06-27T15:24:13.638Z,1009.67
2019-06-27T15:25:13.669Z,1009.66
2019-06-27T15:26:13.658Z,1009.66
2019-06-27T15:27:13.669Z,1009.64
2019-06-27T15:28:13.718Z,1009.58
2019-06-27T15:29:13.695Z,1009.62
2019-06-27T15:30:13.702Z,1009.60
2019-06-27T15:31:13.793Z,1009.65
2019-06-27T15:32:13.754Z,1009.59
2019-06-27T15:33:13.727Z,1009.61
2019-06-27T15:34:13.766Z,1009.67
2019-06-27T15:35:13.772Z,1009.64
2019-06-27T15:36:22.450Z,1009.63
2019-06-27T15:38:27.420Z,1009.66
2019-06-27T15:39:27.024Z,1009.66
2019-06-27T15:41:24.582Z,1009.57
2019-06-27T15:42:23.851Z,1009.57
2019-06-27T15:43:23.817Z,1009.61
2019-06-27T15:44:23.875Z,1009.59
2019-06-27T15:45:23.837Z,1009.60
2019-06-27T15:46:23.837Z,1009.68
2019-06-27T15:47:33.284Z,1009.60
2019-06-27T15:49:30.194Z,1009.54
2019-06-27T15:50:28.367Z,1009.61
2019-06-27T15:51:28.367Z,1009.62
2019-06-27T15:52:28.394Z,1009.60
2019-06-27T15:53:28.382Z,1009.63
2019-06-27T15:54:28.386Z,1009.61
2019-06-27T15:55:28.411Z,1009.54
2019-06-27T15:56:28.414Z,1009.53
2019-06-27T15:57:28.413Z,1009.50
2019-06-27T15:58:28.435Z,1009.56
2019-06-27T15:59:28.452Z,1009.51
2019-06-27T16:00:28.444Z,1009.51
2019-06-27T16:01:28.453Z,1009.51
2019-06-27T16:02:28.484Z,1009.52
2019-06-27T16:03:28.467Z,1009.50
2019-06-27T16:04:34.043Z,1009.50
2019-06-27T16:05:28.595Z,1009.53
2019-06-27T16:06:28.497Z,1009.52
2019-06-27T16:07:28.537Z,1009.48
2019-06-27T16:08:28.530Z,1009.53
2019-06-27T16:09:28.551Z,1009.53
2019-06-27T16:10:28.577Z,1009.45
2019-06-27T16:11:28.561Z,1009.45
2019-06-27T16:12:28.577Z,1009.46
2019-06-27T16:13:28.563Z,1009.48
2019-06-27T16:14:28.586Z,1009.47
2019-06-27T16:15:28.575Z,1009.41
2019-06-27T16:16:28.603Z,1009.42
2019-06-27T16:17:28.627Z,1009.43
2019-06-27T16:18:28.601Z,1009.42
2019-06-27T16:19:28.623Z,1009.39
2019-06-27T16:20:28.668Z,1009.38
2019-06-27T16:21:28.654Z,1009.39
2019-06-27T16:22:28.661Z,1009.38
2019-06-27T16:23:28.689Z,1009.29
2019-06-27T16:24:28.672Z,1009.30
2019-06-27T16:25:28.722Z,1009.37
2019-06-27T16:26:28.699Z,1009.33
2019-06-27T16:27:28.689Z,1009.33
2019-06-27T16:28:28.693Z,1009.33
2019-06-27T16:29:28.714Z,1009.30
2019-06-27T16:30:28.724Z,1009.28
2019-06-27T16:31:28.739Z,1009.32
2019-06-27T16:32:37.405Z,1009.31
2019-06-27T16:34:33.305Z,1009.34
2019-06-27T16:35:33.299Z,1009.30
2019-06-27T16:36:33.258Z,1009.29
2019-06-27T16:37:33.314Z,1009.27
2019-06-27T16:38:33.286Z,1009.25
2019-06-27T16:39:33.279Z,1009.27
2019-06-27T16:40:33.305Z,1009.27
2019-06-27T16:41:33.307Z,1009.32
2019-06-27T16:42:33.320Z,1009.34
2019-06-27T16:43:33.315Z,1009.31
2019-06-27T16:44:33.330Z,1009.33
2019-06-27T16:45:33.335Z,1009.29
2019-06-27T16:46:33.380Z,1009.30
2019-06-27T16:47:33.352Z,1009.28
2019-06-27T16:48:33.427Z,1009.30
2019-06-27T16:49:33.412Z,1009.23
2019-06-27T16:50:33.437Z,1009.28
2019-06-27T16:51:33.395Z,1009.26
2019-06-27T16:52:33.450Z,1009.32
2019-06-27T16:53:33.406Z,1009.34
2019-06-27T16:54:33.428Z,1009.31
2019-06-27T16:55:33.430Z,1009.32
2019-06-27T16:56:33.498Z,1009.34
2019-06-27T16:57:33.495Z,1009.34
2019-06-27T16:58:33.479Z,1009.34
2019-06-27T16:59:33.470Z,1009.29
2019-06-27T17:00:33.468Z,1009.34
2019-06-27T17:01:33.538Z,1009.35
2019-06-27T17:02:33.486Z,1009.35
2019-06-27T17:03:33.497Z,1009.40
2019-06-27T17:04:33.553Z,1009.35
2019-06-27T17:05:33.535Z,1009.33
2019-06-27T17:06:42.008Z,1009.34
2019-06-27T17:07:33.535Z,1009.36
2019-06-27T17:08:33.557Z,1009.35